Time;durP1;ratioP1;P1;durP2;ratioP2;P2;SDS_P1;SDS_P2;PMS_P1;PMS_P2;Temp;Humidity;BMP_temperature;BMP_pressure;BME280_temperature;BME280_humidity;BME280_pressure;Samples;Min_cycle;Max_cycle;Signal;HPM_P1;HPM_P2
2024/01/06 00:00:23;;;;;;;46.80;29.30;;;;;;;;;;43313;284;3030449;-33
2024/01/06 00:02:48;;;;;;;42.40;28.40;;;;;;;;;;43312;284;3031180;-33
2024/01/06 00:04:32;;;;;;;43.80;27.20;;;;;;;;;;43309;277;3031537;-33
2024/01/06 00:06:17;;;;;;;39.60;26.10;;;;;;;;;;43312;293;3030753;-33
2024/01/06 00:08:02;;;;;;;40.40;25.70;;;;;;;;;;43403;281;3030363;-33
2024/01/06 00:09:46;;;;;;;38.30;25.00;;;;;;;;;;43318;284;3030595;-33
2024/01/06 00:11:31;;;;;;;34.80;22.90;;;;;;;;;;43319;276;3030914;-33
2024/01/06 00:13:15;;;;;;;35.30;22.50;;;;;;;;;;43326;284;3030578;-33
2024/01/06 00:15:00;;;;;;;35.20;21.80;;;;;;;;;;43295;284;3030898;-33
2024/01/06 00:16:44;;;;;;;33.20;21.50;;;;;;;;;;43326;284;3030820;-33
2024/01/06 00:18:29;;;;;;;31.00;19.50;;;;;;;;;;43314;284;3030229;-33
2024/01/06 00:20:15;;;;;;;29.60;19.40;;;;;;;;;;43289;284;3032099;-33
2024/01/06 00:22:00;;;;;;;30.80;19.40;;;;;;;;;;43334;284;3030725;-33
2024/01/06 00:23:45;;;;;;;30.10;19.10;;;;;;;;;;43293;270;3031463;-33
2024/01/06 00:25:30;;;;;;;26.00;17.10;;;;;;;;;;43279;273;3030201;-33
2024/01/06 00:27:16;;;;;;;27.40;17.00;;;;;;;;;;43271;285;3030645;-33
2024/01/06 00:29:01;;;;;;;23.70;16.40;;;;;;;;;;43262;294;3030707;-33
2024/01/06 00:30:48;;;;;;;25.70;16.10;;;;;;;;;;43296;285;3032135;-33
2024/01/06 00:32:32;;;;;;;24.50;16.40;;;;;;;;;;43256;285;3030926;-33
2024/01/06 00:34:21;;;;;;;24.40;15.40;;;;;;;;;;43233;294;3031209;-33
2024/01/06 00:36:09;;;;;;;23.50;14.90;;;;;;;;;;43278;285;3030213;-33
2024/01/06 00:37:55;;;;;;;23.50;14.80;;;;;;;;;;43439;294;3032426;-33
2024/01/06 00:39:39;;;;;;;22.10;14.30;;;;;;;;;;43389;285;3031242;-33
2024/01/06 00:41:24;;;;;;;19.80;13.50;;;;;;;;;;43259;285;3030653;-33
2024/01/06 00:43:08;;;;;;;21.40;13.70;;;;;;;;;;43270;285;3031097;-33
2024/01/06 00:44:53;;;;;;;20.50;13.50;;;;;;;;;;43251;284;3030425;-34
2024/01/06 00:46:39;;;;;;;20.30;13.30;;;;;;;;;;43242;284;3031831;-34
2024/01/06 00:48:23;;;;;;;19.40;12.40;;;;;;;;;;43251;285;3030739;-33
2024/01/06 00:50:11;;;;;;;19.10;12.90;;;;;;;;;;43269;285;3030896;-33
2024/01/06 00:51:56;;;;;;;18.80;12.10;;;;;;;;;;43493;285;3031337;-33
2024/01/06 00:53:40;;;;;;;18.90;12.20;;;;;;;;;;43265;285;3031288;-33
2024/01/06 00:55:25;;;;;;;18.50;11.80;;;;;;;;;;43259;284;3030804;-33
2024/01/06 00:57:10;;;;;;;16.50;11.70;;;;;;;;;;43261;285;3030684;-33
2024/01/06 00:59:00;;;;;;;18.40;11.60;;;;;;;;;;43285;285;3031219;-33
2024/01/06 01:00:44;;;;;;;18.10;11.40;;;;;;;;;;43262;285;3031213;-33
2024/01/06 01:02:30;;;;;;;16.90;10.90;;;;;;;;;;43266;284;3030905;-33
2024/01/06 01:04:17;;;;;;;16.60;11.10;;;;;;;;;;43266;285;3031533;-33
2024/01/06 01:06:01;;;;;;;15.60;10.10;;;;;;;;;;43268;281;3032028;-33
2024/01/06 01:07:47;;;;;;;15.90;10.50;;;;;;;;;;43420;281;3030965;-33
2024/01/06 01:09:31;;;;;;;15.60;10.00;;;;;;;;;;43429;281;3031093;-33
2024/01/06 01:11:16;;;;;;;14.90;9.80;;;;;;;;;;43436;270;3030832;-33
2024/01/06 01:13:01;;;;;;;15.40;9.60;;;;;;;;;;43614;291;3031384;-33
2024/01/06 01:14:45;;;;;;;15.60;10.00;;;;;;;;;;43376;282;3031019;-33
2024/01/06 01:16:32;;;;;;;16.40;10.30;;;;;;;;;;43361;271;3036234;-33
2024/01/06 01:18:17;;;;;;;14.70;9.50;;;;;;;;;;43382;274;3030516;-33
2024/01/06 01:20:02;;;;;;;14.60;9.10;;;;;;;;;;43377;282;3030518;-33
2024/01/06 01:21:46;;;;;;;14.80;9.50;;;;;;;;;;43389;282;3032100;-33
2024/01/06 01:23:31;;;;;;;14.40;9.10;;;;;;;;;;43391;274;3031231;-33
2024/01/06 01:25:16;;;;;;;14.60;9.40;;;;;;;;;;43392;274;3031513;-33
2024/01/06 01:27:00;;;;;;;14.30;9.30;;;;;;;;;;43415;278;3037663;-33
2024/01/06 01:28:44;;;;;;;13.40;9.20;;;;;;;;;;43395;278;3031343;-33
2024/01/06 01:30:32;;;;;;;13.30;8.40;;;;;;;;;;43400;271;3030842;-33
2024/01/06 01:32:17;;;;;;;13.00;8.30;;;;;;;;;;43385;282;3031029;-33
2024/01/06 01:34:02;;;;;;;12.50;8.50;;;;;;;;;;43382;282;3030510;-33
2024/01/06 01:35:47;;;;;;;13.10;8.30;;;;;;;;;;43361;282;3031418;-33
2024/01/06 01:37:31;;;;;;;13.10;8.40;;;;;;;;;;43374;274;3030642;-33
2024/01/06 01:39:16;;;;;;;13.10;8.30;;;;;;;;;;43363;282;3031106;-33
2024/01/06 01:41:01;;;;;;;12.50;8.10;;;;;;;;;;43390;278;3031008;-33
2024/01/06 01:42:47;;;;;;;13.40;8.70;;;;;;;;;;43387;282;3030785;-33
2024/01/06 01:44:31;;;;;;;12.50;7.80;;;;;;;;;;43407;278;3030715;-33
2024/01/06 01:46:16;;;;;;;13.30;7.40;;;;;;;;;;43364;274;3031162;-33
2024/01/06 01:48:00;;;;;;;12.50;7.90;;;;;;;;;;43382;282;3030883;-33
2024/01/06 01:49:48;;;;;;;13.80;8.00;;;;;;;;;;43384;286;3030922;-33
2024/01/06 01:51:35;;;;;;;11.10;7.30;;;;;;;;;;43360;282;3030883;-33
2024/01/06 01:53:20;;;;;;;12.50;8.10;;;;;;;;;;43372;291;3031591;-33
2024/01/06 01:55:05;;;;;;;12.10;7.60;;;;;;;;;;43378;271;3030586;-33
2024/01/06 01:56:50;;;;;;;11.70;7.50;;;;;;;;;;43378;275;3032274;-33
2024/01/06 01:58:36;;;;;;;10.80;7.10;;;;;;;;;;43375;282;3031978;-33
2024/01/06 02:00:22;;;;;;;11.60;7.20;;;;;;;;;;43375;282;3030972;-33
2024/01/06 02:02:12;;;;;;;11.00;7.30;;;;;;;;;;43522;271;3031131;-33
2024/01/06 02:03:57;;;;;;;11.20;7.20;;;;;;;;;;43368;290;3031160;-33
2024/01/06 02:05:41;;;;;;;11.60;7.40;;;;;;;;;;43373;275;3030708;-33
2024/01/06 02:07:26;;;;;;;12.10;7.80;;;;;;;;;;43339;279;3031045;-33
2024/01/06 02:09:11;;;;;;;10.80;7.10;;;;;;;;;;43354;271;3030768;-33
2024/01/06 02:10:57;;;;;;;10.80;6.90;;;;;;;;;;43355;282;3031282;-33
2024/01/06 02:12:42;;;;;;;10.90;7.30;;;;;;;;;;43390;282;3030303;-33
2024/01/06 02:14:27;;;;;;;10.20;6.60;;;;;;;;;;43420;282;3029318;-33
2024/01/06 02:16:12;;;;;;;11.30;7.30;;;;;;;;;;43402;282;3030689;-33
2024/01/06 02:17:56;;;;;;;10.90;7.00;;;;;;;;;;43405;282;3037623;-33
2024/01/06 02:19:42;;;;;;;10.40;7.00;;;;;;;;;;43412;282;3030852;-33
2024/01/06 02:21:30;;;;;;;10.60;6.90;;;;;;;;;;43442;282;3030841;-33
2024/01/06 02:23:14;;;;;;;10.10;6.70;;;;;;;;;;43450;282;3030977;-33
2024/01/06 02:24:59;;;;;;;10.10;6.70;;;;;;;;;;43383;282;3030321;-33
2024/01/06 02:26:43;;;;;;;10.30;6.60;;;;;;;;;;43391;282;3031160;-33
2024/01/06 02:28:27;;;;;;;10.70;6.90;;;;;;;;;;43441;274;3038349;-33
2024/01/06 02:30:14;;;;;;;10.60;6.60;;;;;;;;;;43428;282;3031131;-33
2024/01/06 02:31:59;;;;;;;10.10;6.60;;;;;;;;;;43669;282;3031021;-33
2024/01/06 02:33:43;;;;;;;10.00;6.20;;;;;;;;;;43471;270;3031076;-33
2024/01/06 02:35:28;;;;;;;10.00;6.00;;;;;;;;;;43415;274;3030809;-33
2024/01/06 02:37:12;;;;;;;9.80;6.40;;;;;;;;;;43392;278;3030505;-33
2024/01/06 02:38:57;;;;;;;9.00;5.70;;;;;;;;;;43414;278;3031649;-33
2024/01/06 02:40:42;;;;;;;9.40;6.30;;;;;;;;;;43407;282;3031767;-33
2024/01/06 02:42:27;;;;;;;9.20;5.70;;;;;;;;;;43452;282;3031092;-33
2024/01/06 02:44:14;;;;;;;8.80;5.80;;;;;;;;;;43436;282;3030549;-33
2024/01/06 02:45:58;;;;;;;10.20;6.00;;;;;;;;;;43511;282;3030757;-33
2024/01/06 02:47:43;;;;;;;9.70;6.00;;;;;;;;;;43377;291;3030244;-33
2024/01/06 02:49:27;;;;;;;9.30;5.80;;;;;;;;;;43428;282;3032385;-33
2024/01/06 02:51:13;;;;;;;9.00;5.80;;;;;;;;;;43421;278;3030541;-33
2024/01/06 02:52:59;;;;;;;9.50;5.90;;;;;;;;;;43412;270;3032052;-33
2024/01/06 02:54:43;;;;;;;9.10;5.60;;;;;;;;;;43417;282;3032219;-33
2024/01/06 02:56:28;;;;;;;8.90;5.40;;;;;;;;;;43415;278;3030973;-33
2024/01/06 02:58:12;;;;;;;9.20;5.50;;;;;;;;;;43422;282;3030535;-33
2024/01/06 02:59:57;;;;;;;8.00;5.10;;;;;;;;;;43414;282;3031134;-33
2024/01/06 03:01:41;;;;;;;8.20;5.00;;;;;;;;;;43426;282;3030072;-33
2024/01/06 03:03:26;;;;;;;9.10;5.70;;;;;;;;;;43433;282;3030649;-33
2024/01/06 03:05:12;;;;;;;8.20;5.10;;;;;;;;;;43422;282;3030803;-33
2024/01/06 03:06:56;;;;;;;9.50;5.70;;;;;;;;;;43459;281;3031057;-33
2024/01/06 03:08:41;;;;;;;8.40;5.30;;;;;;;;;;43388;282;3030525;-33
2024/01/06 03:10:26;;;;;;;9.90;5.70;;;;;;;;;;43431;282;3032522;-33
2024/01/06 03:12:12;;;;;;;9.10;5.10;;;;;;;;;;43414;274;3030668;-33
2024/01/06 03:13:57;;;;;;;8.50;5.30;;;;;;;;;;43410;282;3032109;-33
2024/01/06 03:15:41;;;;;;;8.10;5.00;;;;;;;;;;43435;274;3030576;-33
2024/01/06 03:17:26;;;;;;;8.40;4.60;;;;;;;;;;43445;282;3030681;-33
2024/01/06 03:19:10;;;;;;;8.20;5.00;;;;;;;;;;43401;282;3031068;-32
2024/01/06 03:20:55;;;;;;;7.40;4.80;;;;;;;;;;43441;274;3032781;-32
2024/01/06 03:22:39;;;;;;;9.00;5.60;;;;;;;;;;43388;282;3030605;-33
2024/01/06 03:24:28;;;;;;;8.60;4.70;;;;;;;;;;43468;282;3030790;-33
2024/01/06 03:26:12;;;;;;;8.60;5.40;;;;;;;;;;43411;282;3030355;-33
2024/01/06 03:27:57;;;;;;;7.50;4.80;;;;;;;;;;43433;291;3030957;-33
2024/01/06 03:29:41;;;;;;;8.50;4.90;;;;;;;;;;43389;270;3037867;-33
2024/01/06 03:31:26;;;;;;;7.40;4.60;;;;;;;;;;43404;270;3030307;-33
2024/01/06 03:33:12;;;;;;;9.20;4.90;;;;;;;;;;43428;281;3031071;-32
2024/01/06 03:34:56;;;;;;;7.70;4.80;;;;;;;;;;43442;282;3030902;-33
2024/01/06 03:36:41;;;;;;;7.10;4.50;;;;;;;;;;43405;291;3031175;-33
2024/01/06 03:38:26;;;;;;;7.50;4.70;;;;;;;;;;43406;282;3030235;-33
2024/01/06 03:40:14;;;;;;;7.60;4.80;;;;;;;;;;43415;282;3036837;-33
2024/01/06 03:41:58;;;;;;;8.10;4.60;;;;;;;;;;43449;270;3030414;-33
2024/01/06 03:43:43;;;;;;;7.20;4.50;;;;;;;;;;43454;281;3030101;-33
2024/01/06 03:45:27;;;;;;;8.10;4.80;;;;;;;;;;43415;281;3030538;-33
2024/01/06 03:47:12;;;;;;;7.70;4.60;;;;;;;;;;43478;281;3030111;-33
2024/01/06 03:48:56;;;;;;;6.90;4.10;;;;;;;;;;43420;281;3030982;-33
2024/01/06 03:50:43;;;;;;;8.00;4.60;;;;;;;;;;43449;281;3030968;-33
2024/01/06 03:52:27;;;;;;;6.90;4.40;;;;;;;;;;43423;281;3031717;-32
2024/01/06 03:54:12;;;;;;;7.70;4.20;;;;;;;;;;43458;281;3030427;-33
2024/01/06 03:55:56;;;;;;;6.60;4.20;;;;;;;;;;43454;274;3030891;-33
2024/01/06 03:57:40;;;;;;;7.80;4.60;;;;;;;;;;43434;281;3030431;-33
2024/01/06 03:59:25;;;;;;;6.60;4.20;;;;;;;;;;43409;274;3030768;-33
2024/01/06 04:01:10;;;;;;;6.90;3.90;;;;;;;;;;43446;289;3030839;-33
2024/01/06 04:02:55;;;;;;;7.00;4.40;;;;;;;;;;43463;281;3031905;-33
2024/01/06 04:04:39;;;;;;;6.90;4.20;;;;;;;;;;43487;281;3030514;-34
2024/01/06 04:06:24;;;;;;;7.20;4.10;;;;;;;;;;43482;278;3030664;-33
2024/01/06 04:08:10;;;;;;;7.30;4.10;;;;;;;;;;43450;270;3030718;-33
2024/01/06 04:09:54;;;;;;;7.00;4.40;;;;;;;;;;43446;281;3031242;-33
2024/01/06 04:11:39;;;;;;;7.00;4.00;;;;;;;;;;43481;269;3030516;-33
2024/01/06 04:13:26;;;;;;;6.30;3.70;;;;;;;;;;43460;281;3031562;-33
2024/01/06 04:15:12;;;;;;;7.40;4.20;;;;;;;;;;43449;281;3031123;-33
2024/01/06 04:16:58;;;;;;;6.90;4.00;;;;;;;;;;43447;281;3031162;-33
2024/01/06 04:18:43;;;;;;;6.50;4.10;;;;;;;;;;43466;277;3031523;-33
2024/01/06 04:20:28;;;;;;;6.30;3.70;;;;;;;;;;43470;274;3030993;-33
2024/01/06 04:22:12;;;;;;;6.60;3.60;;;;;;;;;;43477;281;3030694;-33
2024/01/06 04:23:59;;;;;;;6.50;3.80;;;;;;;;;;43472;281;3030797;-33
2024/01/06 04:25:43;;;;;;;7.00;4.10;;;;;;;;;;43442;281;3030382;-33
2024/01/06 04:27:28;;;;;;;7.00;4.10;;;;;;;;;;43432;281;3030593;-33
2024/01/06 04:29:14;;;;;;;6.20;3.80;;;;;;;;;;43451;289;3030839;-33
2024/01/06 04:30:59;;;;;;;7.40;4.00;;;;;;;;;;43456;274;3029952;-33
2024/01/06 04:32:44;;;;;;;7.20;3.90;;;;;;;;;;43477;273;3030549;-33
2024/01/06 04:34:29;;;;;;;7.70;4.00;;;;;;;;;;43450;273;3030308;-33
2024/01/06 04:36:14;;;;;;;5.80;3.60;;;;;;;;;;43442;281;3030547;-33
2024/01/06 04:37:58;;;;;;;5.90;3.50;;;;;;;;;;43467;274;3030591;-33
2024/01/06 04:39:43;;;;;;;6.70;3.80;;;;;;;;;;43450;289;3030122;-33
2024/01/06 04:41:30;;;;;;;8.10;4.00;;;;;;;;;;43448;281;3037635;-33
2024/01/06 04:43:14;;;;;;;6.90;4.10;;;;;;;;;;43469;281;3030647;-33
2024/01/06 04:44:59;;;;;;;7.00;3.60;;;;;;;;;;43479;281;3030654;-33
2024/01/06 04:46:44;;;;;;;7.20;3.90;;;;;;;;;;43459;281;3030669;-33
2024/01/06 04:48:28;;;;;;;7.00;3.80;;;;;;;;;;43434;273;3030818;-33
2024/01/06 04:50:14;;;;;;;6.90;4.10;;;;;;;;;;43422;281;3030093;-33
2024/01/06 04:51:58;;;;;;;7.00;4.10;;;;;;;;;;43421;274;3030893;-33
2024/01/06 04:53:43;;;;;;;6.20;3.90;;;;;;;;;;43427;269;3030852;-33
2024/01/06 04:55:28;;;;;;;6.60;3.90;;;;;;;;;;43439;281;3031415;-33
2024/01/06 04:57:14;;;;;;;7.00;4.00;;;;;;;;;;43438;278;3030299;-33
2024/01/06 04:58:58;;;;;;;7.20;3.60;;;;;;;;;;43443;281;3031234;-33
2024/01/06 05:00:43;;;;;;;6.30;3.70;;;;;;;;;;43415;281;3030293;-33
2024/01/06 05:02:28;;;;;;;7.20;4.00;;;;;;;;;;43429;281;3030930;-33
2024/01/06 05:04:13;;;;;;;6.50;3.70;;;;;;;;;;43438;281;3031493;-33
2024/01/06 05:05:59;;;;;;;6.70;3.60;;;;;;;;;;43449;277;3031083;-33
2024/01/06 05:07:44;;;;;;;6.40;3.70;;;;;;;;;;43452;274;3030675;-33
2024/01/06 05:09:28;;;;;;;6.30;4.00;;;;;;;;;;43428;289;3030418;-33
2024/01/06 05:11:13;;;;;;;6.40;3.60;;;;;;;;;;43410;281;3030848;-33
2024/01/06 05:12:58;;;;;;;6.50;3.40;;;;;;;;;;43454;289;3032812;-33
2024/01/06 05:14:43;;;;;;;6.50;3.70;;;;;;;;;;43447;281;3028596;-33
2024/01/06 05:16:28;;;;;;;6.10;3.70;;;;;;;;;;43443;266;3031154;-33
2024/01/06 05:18:17;;;;;;;6.60;3.40;;;;;;;;;;43465;281;3031167;-33
2024/01/06 05:20:03;;;;;;;6.20;3.50;;;;;;;;;;43420;289;3030472;-33
2024/01/06 05:21:49;;;;;;;5.90;3.00;;;;;;;;;;43424;285;3030289;-33
2024/01/06 05:23:35;;;;;;;6.70;3.30;;;;;;;;;;43701;265;3031570;-33
2024/01/06 05:25:21;;;;;;;5.90;3.80;;;;;;;;;;43425;281;3029516;-33
2024/01/06 05:27:06;;;;;;;5.90;3.30;;;;;;;;;;43530;281;3030524;-33
2024/01/06 05:28:54;;;;;;;5.10;2.90;;;;;;;;;;43729;277;3031743;-33
2024/01/06 05:30:39;;;;;;;5.60;3.40;;;;;;;;;;44012;281;3030117;-33
2024/01/06 05:32:23;;;;;;;6.80;3.30;;;;;;;;;;44142;269;3031302;-33
2024/01/06 05:34:08;;;;;;;6.20;3.20;;;;;;;;;;44144;277;3030205;-33
2024/01/06 05:35:53;;;;;;;6.00;3.50;;;;;;;;;;43648;270;3030260;-33
2024/01/06 05:37:38;;;;;;;6.00;3.20;;;;;;;;;;43437;281;3030520;-33
2024/01/06 05:39:25;;;;;;;5.30;3.10;;;;;;;;;;43451;281;3030725;-33
2024/01/06 05:41:10;;;;;;;6.70;3.30;;;;;;;;;;43442;281;3030474;-33
2024/01/06 05:42:56;;;;;;;6.50;3.20;;;;;;;;;;43441;281;3036927;-33
2024/01/06 05:44:41;;;;;;;5.60;3.20;;;;;;;;;;43440;289;3030455;-33
2024/01/06 05:46:26;;;;;;;5.70;3.20;;;;;;;;;;43467;270;3030226;-33
2024/01/06 05:48:14;;;;;;;5.50;2.80;;;;;;;;;;43459;281;3030797;-33
2024/01/06 05:49:59;;;;;;;5.70;3.30;;;;;;;;;;43428;281;3033418;-33
2024/01/06 05:51:48;;;;;;;5.90;3.00;;;;;;;;;;43430;273;3031024;-33
2024/01/06 05:53:33;;;;;;;5.20;3.00;;;;;;;;;;43410;282;3031132;-33
2024/01/06 05:55:21;;;;;;;6.00;3.00;;;;;;;;;;43406;270;3030705;-33
2024/01/06 05:57:06;;;;;;;5.70;3.20;;;;;;;;;;43407;282;3030166;-33
2024/01/06 05:58:51;;;;;;;5.90;3.00;;;;;;;;;;43526;281;3030369;-33
2024/01/06 06:00:35;;;;;;;5.60;3.20;;;;;;;;;;43429;281;3031043;-33
2024/01/06 06:02:20;;;;;;;5.20;3.10;;;;;;;;;;43409;281;3030649;-33
2024/01/06 06:04:04;;;;;;;7.10;3.20;;;;;;;;;;43403;274;3032208;-33
2024/01/06 06:05:49;;;;;;;6.00;3.20;;;;;;;;;;43415;281;3031077;-33
2024/01/06 06:07:38;;;;;;;6.20;3.40;;;;;;;;;;43412;278;3030283;-33
2024/01/06 06:09:23;;;;;;;5.10;2.70;;;;;;;;;;43426;281;3031666;-33
2024/01/06 06:11:12;;;;;;;5.60;3.20;;;;;;;;;;43417;281;3031562;-33
2024/01/06 06:12:57;;;;;;;5.90;3.20;;;;;;;;;;44014;282;3030960;-33
2024/01/06 06:14:42;;;;;;;6.50;3.20;;;;;;;;;;43402;270;3030439;-33
2024/01/06 06:16:27;;;;;;;5.30;3.00;;;;;;;;;;43400;282;3030406;-33
2024/01/06 06:18:12;;;;;;;5.60;3.20;;;;;;;;;;43405;282;3031540;-33
2024/01/06 06:19:58;;;;;;;6.40;3.20;;;;;;;;;;43410;281;3030534;-33
2024/01/06 06:21:43;;;;;;;5.00;3.00;;;;;;;;;;43432;274;3030387;-33
2024/01/06 06:23:31;;;;;;;5.30;2.80;;;;;;;;;;43414;281;3031251;-33
2024/01/06 06:25:18;;;;;;;5.10;3.00;;;;;;;;;;43451;274;3030846;-33
2024/01/06 06:27:05;;;;;;;5.90;3.10;;;;;;;;;;43427;274;3030301;-33
2024/01/06 06:28:49;;;;;;;5.10;3.10;;;;;;;;;;43960;270;3032187;-33
2024/01/06 06:30:34;;;;;;;5.50;3.20;;;;;;;;;;43426;281;3030876;-33
2024/01/06 06:32:19;;;;;;;5.30;3.10;;;;;;;;;;43930;281;3030718;-33
2024/01/06 06:34:04;;;;;;;5.70;3.30;;;;;;;;;;43404;277;3036813;-33
2024/01/06 06:35:52;;;;;;;5.50;3.20;;;;;;;;;;43415;274;3031774;-33
2024/01/06 06:37:37;;;;;;;5.30;3.20;;;;;;;;;;43426;281;3030797;-33
2024/01/06 06:39:23;;;;;;;5.50;3.00;;;;;;;;;;43385;281;3031587;-33
2024/01/06 06:41:12;;;;;;;6.00;3.30;;;;;;;;;;43392;281;3031181;-33
2024/01/06 06:42:56;;;;;;;4.80;2.90;;;;;;;;;;43397;281;3030287;-33
2024/01/06 06:44:41;;;;;;;5.50;2.90;;;;;;;;;;43412;281;3031183;-33
2024/01/06 06:46:26;;;;;;;5.10;3.00;;;;;;;;;;43385;278;3030160;-33
2024/01/06 06:48:11;;;;;;;5.00;2.90;;;;;;;;;;43400;270;3030525;-33
2024/01/06 06:49:57;;;;;;;5.40;2.90;;;;;;;;;;43395;282;3030704;-33
2024/01/06 06:51:46;;;;;;;4.80;3.00;;;;;;;;;;43396;270;3030666;-33
2024/01/06 06:53:34;;;;;;;5.30;3.00;;;;;;;;;;43358;281;3031049;-33
2024/01/06 06:55:19;;;;;;;5.30;2.90;;;;;;;;;;43413;281;3030909;-33
2024/01/06 06:57:06;;;;;;;5.30;2.90;;;;;;;;;;43417;281;3029835;-33
2024/01/06 06:58:52;;;;;;;5.30;3.20;;;;;;;;;;43485;281;3030847;-33
2024/01/06 07:00:39;;;;;;;5.30;3.20;;;;;;;;;;43390;282;3030887;-33
2024/01/06 07:02:27;;;;;;;5.30;2.90;;;;;;;;;;43426;282;3031285;-33
2024/01/06 07:04:12;;;;;;;5.30;3.00;;;;;;;;;;43384;270;3030700;-33
2024/01/06 07:05:58;;;;;;;4.80;2.80;;;;;;;;;;43404;270;3031144;-33
2024/01/06 07:07:46;;;;;;;5.40;3.00;;;;;;;;;;43408;290;3030896;-33
2024/01/06 07:09:33;;;;;;;5.60;3.00;;;;;;;;;;43403;282;3031235;-33
2024/01/06 07:11:21;;;;;;;5.40;3.00;;;;;;;;;;43412;282;3030538;-33
2024/01/06 07:13:07;;;;;;;4.90;3.00;;;;;;;;;;43352;282;3030336;-33
2024/01/06 07:14:52;;;;;;;5.50;3.00;;;;;;;;;;43351;291;3038354;-33
2024/01/06 07:16:37;;;;;;;5.00;2.80;;;;;;;;;;43342;271;3030778;-33
2024/01/06 07:18:23;;;;;;;6.00;3.00;;;;;;;;;;43363;274;3030996;-33
2024/01/06 07:20:10;;;;;;;5.10;3.00;;;;;;;;;;43580;282;3030620;-33
2024/01/06 07:21:55;;;;;;;5.40;3.10;;;;;;;;;;43766;291;3031682;-33
2024/01/06 07:23:39;;;;;;;5.10;2.80;;;;;;;;;;43334;266;3031518;-33
2024/01/06 07:25:24;;;;;;;5.00;2.90;;;;;;;;;;43360;282;3038803;-33
2024/01/06 07:27:09;;;;;;;5.20;3.10;;;;;;;;;;43111;274;3328223;-33
2024/01/06 07:28:54;;;;;;;5.30;3.30;;;;;;;;;;43397;271;3031533;-33
2024/01/06 07:30:38;;;;;;;5.10;3.10;;;;;;;;;;43334;274;3030586;-33
2024/01/06 07:32:24;;;;;;;5.50;3.20;;;;;;;;;;43397;292;3031332;-33
2024/01/06 07:34:09;;;;;;;4.80;2.90;;;;;;;;;;43343;274;3030109;-33
2024/01/06 07:35:54;;;;;;;4.80;3.10;;;;;;;;;;43379;278;3030711;-33
2024/01/06 07:37:39;;;;;;;4.90;2.90;;;;;;;;;;43382;274;3030201;-33
2024/01/06 07:39:24;;;;;;;5.00;2.80;;;;;;;;;;43402;266;3030875;-33
2024/01/06 07:41:10;;;;;;;5.70;3.20;;;;;;;;;;43397;291;3031016;-33
2024/01/06 07:42:55;;;;;;;5.20;3.00;;;;;;;;;;43381;282;3030900;-33
2024/01/06 07:44:40;;;;;;;4.80;2.70;;;;;;;;;;43375;271;3029878;-33
2024/01/06 07:46:24;;;;;;;5.10;3.00;;;;;;;;;;43397;282;3030881;-33
2024/01/06 07:48:10;;;;;;;5.20;2.90;;;;;;;;;;43406;282;3030350;-32
2024/01/06 07:49:57;;;;;;;5.30;2.90;;;;;;;;;;44110;278;3031181;-32
2024/01/06 07:51:42;;;;;;;5.10;3.00;;;;;;;;;;43600;271;3030878;-32
2024/01/06 07:53:26;;;;;;;4.80;3.00;;;;;;;;;;43395;286;3030229;-32
2024/01/06 07:55:12;;;;;;;5.20;2.80;;;;;;;;;;43389;282;3031072;-33
2024/01/06 07:56:56;;;;;;;5.10;2.90;;;;;;;;;;43415;281;3030510;-33
2024/01/06 07:58:41;;;;;;;4.90;3.20;;;;;;;;;;43424;282;3031374;-33
2024/01/06 08:00:28;;;;;;;5.00;2.90;;;;;;;;;;43399;282;3030719;-33
2024/01/06 08:02:14;;;;;;;5.10;2.90;;;;;;;;;;43406;278;3030697;-33
2024/01/06 08:03:59;;;;;;;5.10;3.10;;;;;;;;;;43395;282;3031696;-33
2024/01/06 08:05:44;;;;;;;5.10;3.00;;;;;;;;;;43665;274;3030092;-33
2024/01/06 08:07:29;;;;;;;5.20;3.10;;;;;;;;;;43385;282;3030995;-33
2024/01/06 08:09:14;;;;;;;5.10;3.00;;;;;;;;;;43400;282;3030532;-33
2024/01/06 08:10:58;;;;;;;5.10;3.00;;;;;;;;;;43410;281;3029481;-33
2024/01/06 08:12:43;;;;;;;5.20;3.10;;;;;;;;;;43420;274;3030499;-33
2024/01/06 08:14:28;;;;;;;5.20;2.80;;;;;;;;;;44113;281;3032030;-33
2024/01/06 08:16:13;;;;;;;4.90;3.00;;;;;;;;;;43842;281;3028548;-33
2024/01/06 08:18:02;;;;;;;5.20;3.10;;;;;;;;;;43439;281;3030832;-33
2024/01/06 08:19:49;;;;;;;4.80;2.90;;;;;;;;;;43992;278;3030663;-33
2024/01/06 08:21:34;;;;;;;5.50;3.10;;;;;;;;;;43428;269;3031027;-33
2024/01/06 08:23:20;;;;;;;5.00;2.90;;;;;;;;;;43451;278;3030802;-33
2024/01/06 08:25:07;;;;;;;5.00;3.10;;;;;;;;;;43435;281;3031924;-33
2024/01/06 08:26:52;;;;;;;5.70;3.10;;;;;;;;;;43384;279;3036760;-33
2024/01/06 08:28:39;;;;;;;5.70;3.10;;;;;;;;;;43458;269;3031203;-33
2024/01/06 08:30:24;;;;;;;5.60;3.20;;;;;;;;;;43458;285;3031731;-33
2024/01/06 08:32:12;;;;;;;5.60;3.00;;;;;;;;;;43439;281;3031239;-33
2024/01/06 08:34:02;;;;;;;5.20;3.10;;;;;;;;;;43455;281;3030537;-33
2024/01/06 08:35:48;;;;;;;5.00;2.90;;;;;;;;;;43404;273;3031038;-33
2024/01/06 08:37:33;;;;;;;5.10;3.10;;;;;;;;;;43421;270;3031152;-33
2024/01/06 08:39:18;;;;;;;5.60;3.10;;;;;;;;;;43425;281;3029979;-33
2024/01/06 08:41:05;;;;;;;5.20;2.80;;;;;;;;;;43429;281;3030631;-33
2024/01/06 08:42:50;;;;;;;5.90;3.30;;;;;;;;;;43512;281;3030810;-33
2024/01/06 08:44:35;;;;;;;5.70;3.00;;;;;;;;;;43437;277;3030906;-33
2024/01/06 08:46:21;;;;;;;5.20;2.90;;;;;;;;;;43398;281;3031043;-33
2024/01/06 08:48:07;;;;;;;5.50;3.10;;;;;;;;;;43440;281;3030887;-33
2024/01/06 08:49:52;;;;;;;5.20;3.10;;;;;;;;;;43516;270;3030440;-33
2024/01/06 08:51:37;;;;;;;5.00;2.70;;;;;;;;;;43435;281;3030502;-33
2024/01/06 08:53:21;;;;;;;5.00;2.80;;;;;;;;;;43456;281;3030954;-33
2024/01/06 08:55:08;;;;;;;5.50;2.80;;;;;;;;;;43416;274;3030875;-33
2024/01/06 08:56:52;;;;;;;5.90;3.00;;;;;;;;;;44087;289;3030507;-33
2024/01/06 08:58:37;;;;;;;5.20;2.90;;;;;;;;;;43766;281;3031698;-33
2024/01/06 09:00:24;;;;;;;5.10;3.00;;;;;;;;;;43411;281;3032501;-33
2024/01/06 09:02:09;;;;;;;4.70;2.90;;;;;;;;;;43443;274;3030774;-33
2024/01/06 09:03:54;;;;;;;5.60;3.00;;;;;;;;;;43423;270;3030624;-32
2024/01/06 09:05:39;;;;;;;5.80;3.10;;;;;;;;;;43440;290;3030617;-32
2024/01/06 09:07:23;;;;;;;5.70;2.80;;;;;;;;;;44137;281;3031426;-33
2024/01/06 09:09:09;;;;;;;4.80;2.60;;;;;;;;;;43436;281;3032058;-33
2024/01/06 09:10:57;;;;;;;5.20;3.00;;;;;;;;;;43456;281;3031381;-32
2024/01/06 09:12:42;;;;;;;5.60;3.20;;;;;;;;;;43735;282;3030424;-32
2024/01/06 09:14:26;;;;;;;5.30;2.90;;;;;;;;;;43425;281;3030736;-33
2024/01/06 09:16:11;;;;;;;4.90;2.80;;;;;;;;;;43435;281;3031078;-32
2024/01/06 09:17:56;;;;;;;4.90;2.90;;;;;;;;;;43445;269;3036777;-33
2024/01/06 09:19:41;;;;;;;5.50;2.90;;;;;;;;;;43444;281;3031869;-33
2024/01/06 09:21:29;;;;;;;5.50;2.90;;;;;;;;;;43426;274;3030550;-33
2024/01/06 09:23:14;;;;;;;5.30;2.90;;;;;;;;;;43407;270;3030149;-33
2024/01/06 09:25:01;;;;;;;5.00;2.60;;;;;;;;;;43424;281;3032889;-33
2024/01/06 09:26:46;;;;;;;5.20;2.80;;;;;;;;;;43432;273;3032301;-33
2024/01/06 09:28:34;;;;;;;5.80;3.00;;;;;;;;;;43408;273;3031445;-33
2024/01/06 09:30:19;;;;;;;5.20;2.90;;;;;;;;;;43447;289;3031000;-33
2024/01/06 09:32:05;;;;;;;5.00;2.60;;;;;;;;;;43444;270;3030841;-33
2024/01/06 09:33:50;;;;;;;4.70;2.80;;;;;;;;;;43444;273;3031262;-33
2024/01/06 09:35:35;;;;;;;5.00;2.90;;;;;;;;;;44135;281;3030913;-33
2024/01/06 09:37:23;;;;;;;5.40;2.70;;;;;;;;;;43992;277;3030844;-33
2024/01/06 09:39:10;;;;;;;4.80;2.80;;;;;;;;;;43445;274;3031484;-33
2024/01/06 09:40:57;;;;;;;4.70;2.80;;;;;;;;;;43443;273;3030985;-33
2024/01/06 09:42:43;;;;;;;5.10;2.80;;;;;;;;;;43429;274;3031301;-33
2024/01/06 09:44:28;;;;;;;5.10;2.80;;;;;;;;;;43601;281;3030436;-33
2024/01/06 09:46:25;;;;;;;5.20;2.70;;;;;;;;;;43422;281;3031211;-33
2024/01/06 09:48:15;;;;;;;5.10;2.80;;;;;;;;;;43942;281;3031577;-33
2024/01/06 09:50:05;;;;;;;5.80;2.90;;;;;;;;;;43847;271;3030993;-33
2024/01/06 09:51:55;;;;;;;5.00;2.70;;;;;;;;;;43577;281;3030943;-33
2024/01/06 09:53:50;;;;;;;5.60;2.60;;;;;;;;;;43453;273;3030831;-33
2024/01/06 09:55:36;;;;;;;5.60;2.80;;;;;;;;;;43413;281;3031036;-33
2024/01/06 09:57:25;;;;;;;5.10;2.60;;;;;;;;;;43409;281;3031024;-33
2024/01/06 09:59:09;;;;;;;5.40;2.70;;;;;;;;;;43599;281;3030224;-33
2024/01/06 10:00:54;;;;;;;6.60;3.10;;;;;;;;;;43425;281;3030716;-33
2024/01/06 10:02:40;;;;;;;5.40;2.70;;;;;;;;;;43424;270;3030085;-33
2024/01/06 10:04:27;;;;;;;6.50;2.70;;;;;;;;;;43437;277;3032284;-33
2024/01/06 10:06:12;;;;;;;5.80;2.80;;;;;;;;;;43450;273;3030240;-32
2024/01/06 10:07:59;;;;;;;5.90;2.80;;;;;;;;;;43410;281;3031713;-32
2024/01/06 10:09:45;;;;;;;5.40;2.90;;;;;;;;;;43435;270;3030807;-32
2024/01/06 10:11:31;;;;;;;4.80;2.60;;;;;;;;;;43448;281;3031410;-32
2024/01/06 10:13:19;;;;;;;5.20;2.70;;;;;;;;;;43433;281;3031847;-32
2024/01/06 10:15:06;;;;;;;5.40;2.80;;;;;;;;;;43437;281;3031169;-32
2024/01/06 10:16:52;;;;;;;5.40;2.70;;;;;;;;;;44119;281;3030477;-32
2024/01/06 10:18:36;;;;;;;6.00;2.80;;;;;;;;;;44116;277;3030943;-33
2024/01/06 10:20:21;;;;;;;5.60;2.80;;;;;;;;;;44151;280;3031388;-33